Time;durP1;ratioP1;P1;durP2;ratioP2;P2;SDS_P1;SDS_P2;PMS_P1;PMS_P2;Temp;Humidity;BMP_temperature;BMP_pressure;BME280_temperature;BME280_humidity;BME280_pressure;Samples;Min_cycle;Max_cycle;Signal;HPM_P1;HPM_P2
2023/12/08 00:01:55;;;;;;;9.87;7.57;;;;;;;;;;6245587;23;20454;-88
2023/12/08 00:04:28;;;;;;;10.50;7.35;;;;;;;;;;6245791;23;20424;-88
2023/12/08 00:06:58;;;;;;;10.70;7.23;;;;;;;;;;6242324;23;20164;-88
2023/12/08 00:09:32;;;;;;;15.37;7.53;;;;;;;;;;6238803;23;20404;-87
2023/12/08 00:12:02;;;;;;;10.57;7.40;;;;;;;;;;6262846;22;20520;-87
2023/12/08 00:14:32;;;;;;;9.70;7.30;;;;;;;;;;6235959;23;20440;-87
2023/12/08 00:16:59;;;;;;;12.27;7.57;;;;;;;;;;6235281;23;20480;-88
2023/12/08 00:19:33;;;;;;;6.70;4.80;;;;;;;;;;6232604;23;20909;-87
2023/12/08 00:22:05;;;;;;;10.77;7.77;;;;;;;;;;6234739;23;20454;-87
2023/12/08 00:24:34;;;;;;;10.60;7.00;;;;;;;;;;6234162;23;20495;-87
2023/12/08 00:27:01;;;;;;;12.17;7.33;;;;;;;;;;6235348;23;20458;-87
2023/12/08 00:29:43;;;;;;;11.40;7.13;;;;;;;;;;6237198;23;20400;-88
2023/12/08 00:32:11;;;;;;;11.33;7.30;;;;;;;;;;6233767;23;20443;-85
2023/12/08 00:34:42;;;;;;;10.30;7.67;;;;;;;;;;6261002;23;20408;-87
2023/12/08 00:37:22;;;;;;;9.70;6.77;;;;;;;;;;6263123;23;20507;-87
2023/12/08 00:39:50;;;;;;;11.03;7.67;;;;;;;;;;6240211;22;20574;-87
2023/12/08 00:42:17;;;;;;;9.57;6.87;;;;;;;;;;6230803;23;20932;-87
2023/12/08 00:44:57;;;;;;;10.93;6.82;;;;;;;;;;6233307;23;20472;-87
2023/12/08 00:47:27;;;;;;;9.20;6.17;;;;;;;;;;6231360;23;20165;-87
2023/12/08 00:49:57;;;;;;;7.27;5.57;;;;;;;;;;6232379;22;20404;-86
2023/12/08 00:52:27;;;;;;;8.40;5.80;;;;;;;;;;6231625;23;20488;-87
2023/12/08 00:54:55;;;;;;;10.57;7.63;;;;;;;;;;6232494;23;20451;-87
2023/12/08 00:57:24;;;;;;;9.13;5.90;;;;;;;;;;6231991;23;20415;-87
2023/12/08 00:59:54;;;;;;;8.63;6.23;;;;;;;;;;6234353;22;20717;-88
2023/12/08 01:02:26;;;;;;;10.30;7.13;;;;;;;;;;6237810;23;20877;-88
2023/12/08 01:04:53;;;;;;;9.37;7.10;;;;;;;;;;6238480;23;20442;-88
2023/12/08 01:07:26;;;;;;;8.50;6.40;;;;;;;;;;6236982;23;20412;-87
2023/12/08 01:09:57;;;;;;;8.57;5.10;;;;;;;;;;6231137;22;20408;-87
2023/12/08 01:12:25;;;;;;;10.50;7.88;;;;;;;;;;6227930;23;20232;-87
2023/12/08 01:14:54;;;;;;;15.43;7.77;;;;;;;;;;6230969;23;20177;-88
2023/12/08 01:17:22;;;;;;;9.00;6.93;;;;;;;;;;6232169;23;20408;-86
2023/12/08 01:19:54;;;;;;;11.17;6.67;;;;;;;;;;6232584;22;20416;-87
2023/12/08 01:22:27;;;;;;;16.30;7.00;;;;;;;;;;6230869;23;20550;-87
2023/12/08 01:25:02;;;;;;;8.40;6.80;;;;;;;;;;6232293;23;20392;-86
2023/12/08 01:27:30;;;;;;;14.00;7.57;;;;;;;;;;6234227;23;20413;-88
2023/12/08 01:29:59;;;;;;;9.00;6.00;;;;;;;;;;6258014;22;20408;-86
2023/12/08 01:32:27;;;;;;;9.50;6.57;;;;;;;;;;6258584;23;20412;-87
2023/12/08 01:34:54;;;;;;;11.00;7.10;;;;;;;;;;6232551;23;20752;-86
2023/12/08 01:37:22;;;;;;;13.60;7.30;;;;;;;;;;6233742;23;20487;-87
2023/12/08 01:39:50;;;;;;;6.93;5.57;;;;;;;;;;6259264;22;20412;-87
2023/12/08 01:42:19;;;;;;;9.50;7.63;;;;;;;;;;6264062;23;20452;-85
2023/12/08 01:44:46;;;;;;;8.30;7.00;;;;;;;;;;6236344;23;20401;-87
2023/12/08 01:47:14;;;;;;;10.17;7.60;;;;;;;;;;6229887;23;20419;-85
2023/12/08 01:49:44;;;;;;;8.00;5.97;;;;;;;;;;6245877;22;20419;-87
2023/12/08 01:52:17;;;;;;;12.03;7.53;;;;;;;;;;6245963;22;20415;-84
2023/12/08 01:54:46;;;;;;;7.97;5.40;;;;;;;;;;6246779;22;20416;-87
2023/12/08 01:57:13;;;;;;;7.93;6.50;;;;;;;;;;6271843;22;20402;-90
2023/12/08 01:59:46;;;;;;;10.87;7.53;;;;;;;;;;6247441;22;20393;-89
2023/12/08 02:02:14;;;;;;;10.90;8.35;;;;;;;;;;6246625;22;20457;-87
2023/12/08 02:04:43;;;;;;;15.43;7.90;;;;;;;;;;6247163;22;20160;-86
2023/12/08 02:07:15;;;;;;;10.40;7.80;;;;;;;;;;6247004;22;20410;-87
2023/12/08 02:09:44;;;;;;;12.60;6.87;;;;;;;;;;6239590;23;20176;-86
2023/12/08 02:12:11;;;;;;;9.97;6.70;;;;;;;;;;6230417;23;20941;-87
2023/12/08 02:14:43;;;;;;;10.63;7.63;;;;;;;;;;6230905;23;20423;-86
2023/12/08 02:17:14;;;;;;;11.03;7.63;;;;;;;;;;6228960;23;20474;-86
2023/12/08 02:19:42;;;;;;;7.40;5.80;;;;;;;;;;6253906;23;20408;-86
2023/12/08 02:22:10;;;;;;;10.67;7.60;;;;;;;;;;6258729;23;20428;-84
2023/12/08 02:24:38;;;;;;;9.30;6.93;;;;;;;;;;6262219;23;20412;-87
2023/12/08 02:27:06;;;;;;;10.73;7.60;;;;;;;;;;6236346;23;20420;-87
2023/12/08 02:29:33;;;;;;;8.47;6.87;;;;;;;;;;6231107;23;20408;-86
2023/12/08 02:32:25;;;;;;;11.87;7.50;;;;;;;;;;6259252;22;20467;-86
2023/12/08 02:34:57;;;;;;;10.40;6.90;;;;;;;;;;6267880;23;20407;-86
2023/12/08 02:37:34;;;;;;;16.80;7.77;;;;;;;;;;6245329;22;20192;-88
2023/12/08 02:40:08;;;;;;;10.27;7.70;;;;;;;;;;6270919;22;20390;-87
2023/12/08 02:42:38;;;;;;;13.30;7.20;;;;;;;;;;6244417;23;20189;-89
2023/12/08 02:45:05;;;;;;;11.23;7.90;;;;;;;;;;6241621;23;20444;-89
2023/12/08 02:47:37;;;;;;;11.73;7.77;;;;;;;;;;6241187;23;20428;-89
2023/12/08 02:50:08;;;;;;;10.10;7.57;;;;;;;;;;6230901;22;20514;-88
2023/12/08 02:52:43;;;;;;;12.20;8.23;;;;;;;;;;6233228;23;20420;-87
2023/12/08 02:55:13;;;;;;;8.80;6.90;;;;;;;;;;6258604;23;20436;-88
2023/12/08 02:57:43;;;;;;;12.70;7.97;;;;;;;;;;6232774;23;20408;-88
2023/12/08 03:00:11;;;;;;;8.70;6.68;;;;;;;;;;6231490;23;20497;-87
2023/12/08 03:02:43;;;;;;;11.10;7.67;;;;;;;;;;6234771;23;20211;-87
2023/12/08 03:05:11;;;;;;;9.23;7.80;;;;;;;;;;6232475;23;20454;-88
2023/12/08 03:07:39;;;;;;;12.03;8.20;;;;;;;;;;6231260;23;20400;-86
2023/12/08 03:10:06;;;;;;;10.80;7.73;;;;;;;;;;6230514;22;20499;-86
2023/12/08 03:12:35;;;;;;;11.10;6.97;;;;;;;;;;6255864;22;20444;-87
2023/12/08 03:15:02;;;;;;;11.70;7.83;;;;;;;;;;6229833;23;20416;-86
2023/12/08 03:17:30;;;;;;;8.17;5.60;;;;;;;;;;6256183;22;20420;-86
2023/12/08 03:20:00;;;;;;;10.63;7.43;;;;;;;;;;6256530;22;21072;-87
2023/12/08 03:22:28;;;;;;;11.13;8.67;;;;;;;;;;6231316;23;20440;-87
2023/12/08 03:25:05;;;;;;;11.00;7.73;;;;;;;;;;6231101;23;20403;-87
2023/12/08 03:27:33;;;;;;;11.53;8.20;;;;;;;;;;6229819;23;20407;-85
2023/12/08 03:30:01;;;;;;;9.83;8.00;;;;;;;;;;6229802;22;20404;-87
2023/12/08 03:32:34;;;;;;;8.57;6.37;;;;;;;;;;6229077;23;20431;-87
2023/12/08 03:35:01;;;;;;;9.77;7.17;;;;;;;;;;6232302;23;20424;-89
2023/12/08 03:37:32;;;;;;;16.33;7.47;;;;;;;;;;6261148;22;20412;-86
2023/12/08 03:40:02;;;;;;;12.43;8.00;;;;;;;;;;6228943;22;20483;-86
2023/12/08 03:42:35;;;;;;;15.23;7.40;;;;;;;;;;6229428;23;20440;-87
2023/12/08 03:45:06;;;;;;;14.23;8.17;;;;;;;;;;6229223;23;20492;-86
2023/12/08 03:47:34;;;;;;;12.80;7.87;;;;;;;;;;6229397;23;20432;-88
2023/12/08 03:50:01;;;;;;;9.88;7.68;;;;;;;;;;6254607;22;20412;-87
2023/12/08 03:52:32;;;;;;;11.03;7.83;;;;;;;;;;6230057;23;20615;-86
2023/12/08 03:54:59;;;;;;;10.97;8.10;;;;;;;;;;6229597;23;20419;-87
2023/12/08 03:57:26;;;;;;;11.03;7.90;;;;;;;;;;6231038;23;20422;-87
2023/12/08 03:59:57;;;;;;;12.40;7.40;;;;;;;;;;6232579;22;20426;-86
2023/12/08 04:02:27;;;;;;;10.67;7.20;;;;;;;;;;6232229;23;20527;-87
2023/12/08 04:05:11;;;;;;;11.00;7.77;;;;;;;;;;6237271;23;20384;-86
2023/12/08 04:07:40;;;;;;;8.37;6.63;;;;;;;;;;6233074;23;20415;-87
2023/12/08 04:10:09;;;;;;;10.63;8.30;;;;;;;;;;6260003;22;20439;-87
2023/12/08 04:12:37;;;;;;;11.83;7.93;;;;;;;;;;6271909;22;20423;-88
2023/12/08 04:15:11;;;;;;;10.90;5.60;;;;;;;;;;6246298;22;20403;-88
2023/12/08 04:17:39;;;;;;;11.10;7.77;;;;;;;;;;6247898;23;20381;-87
2023/12/08 04:20:07;;;;;;;9.13;8.23;;;;;;;;;;6248332;22;20419;-87
2023/12/08 04:22:35;;;;;;;12.93;8.20;;;;;;;;;;6243369;23;20440;-85
2023/12/08 04:25:03;;;;;;;10.80;7.07;;;;;;;;;;6262153;22;20458;-86
2023/12/08 04:27:36;;;;;;;12.50;8.23;;;;;;;;;;6233048;23;20408;-86
2023/12/08 04:30:04;;;;;;;13.77;8.87;;;;;;;;;;6232612;22;20487;-87
2023/12/08 04:32:39;;;;;;;11.03;8.40;;;;;;;;;;6233578;23;20424;-87
2023/12/08 04:35:07;;;;;;;11.30;7.50;;;;;;;;;;6232628;23;20434;-87
2023/12/08 04:37:41;;;;;;;14.73;9.00;;;;;;;;;;6232825;23;20468;-88
2023/12/08 04:40:11;;;;;;;12.10;7.97;;;;;;;;;;6234141;22;20431;-88
2023/12/08 04:42:47;;;;;;;11.53;7.60;;;;;;;;;;6236275;23;20470;-89
2023/12/08 04:45:15;;;;;;;11.00;7.90;;;;;;;;;;6231634;23;20431;-86
2023/12/08 04:47:47;;;;;;;12.80;8.80;;;;;;;;;;6258489;22;20412;-86
2023/12/08 04:50:14;;;;;;;13.75;8.63;;;;;;;;;;6256968;22;20507;-86
2023/12/08 04:52:42;;;;;;;11.90;8.70;;;;;;;;;;6257327;22;20223;-87
2023/12/08 04:55:17;;;;;;;10.20;7.93;;;;;;;;;;6231746;23;20408;-88
2023/12/08 04:57:46;;;;;;;13.60;8.40;;;;;;;;;;6232778;23;20389;-86
2023/12/08 05:00:17;;;;;;;12.30;7.43;;;;;;;;;;6232179;23;20467;-87
2023/12/08 05:02:48;;;;;;;11.05;6.95;;;;;;;;;;6230677;23;20933;-86
2023/12/08 05:05:20;;;;;;;14.63;9.27;;;;;;;;;;6236748;23;20201;-87
2023/12/08 05:07:47;;;;;;;15.33;9.00;;;;;;;;;;6270260;23;20446;-87
2023/12/08 05:10:18;;;;;;;12.40;8.40;;;;;;;;;;6244183;23;20412;-89
2023/12/08 05:12:47;;;;;;;13.60;9.37;;;;;;;;;;6235261;23;20420;-87
2023/12/08 05:15:19;;;;;;;15.07;8.50;;;;;;;;;;6234796;23;20404;-87
2023/12/08 05:17:47;;;;;;;13.53;9.50;;;;;;;;;;6229130;23;20244;-87
2023/12/08 05:20:15;;;;;;;13.40;9.60;;;;;;;;;;6232473;23;20466;-85
2023/12/08 05:22:47;;;;;;;12.20;8.33;;;;;;;;;;6205181;23;20440;-85
2023/12/08 05:25:14;;;;;;;11.93;8.30;;;;;;;;;;6234439;23;20464;-87
2023/12/08 05:27:43;;;;;;;15.43;10.10;;;;;;;;;;6235338;23;20413;-88
2023/12/08 05:30:10;;;;;;;15.50;10.00;;;;;;;;;;6245826;22;20450;-88
2023/12/08 05:32:38;;;;;;;12.40;7.53;;;;;;;;;;6247142;22;20433;-86
2023/12/08 05:35:06;;;;;;;13.07;8.90;;;;;;;;;;6244826;23;20172;-87
2023/12/08 05:37:37;;;;;;;13.30;8.77;;;;;;;;;;6237742;23;20414;-87
2023/12/08 05:40:05;;;;;;;13.63;8.67;;;;;;;;;;6235634;22;20438;-87
2023/12/08 05:42:37;;;;;;;16.53;11.27;;;;;;;;;;6237623;23;20523;-87
2023/12/08 05:45:08;;;;;;;17.50;8.93;;;;;;;;;;6237608;23;20428;-86
2023/12/08 05:47:38;;;;;;;11.70;7.50;;;;;;;;;;6258657;23;20432;-88
2023/12/08 05:50:07;;;;;;;15.90;9.70;;;;;;;;;;6231332;22;21000;-87
2023/12/08 05:52:35;;;;;;;14.07;9.97;;;;;;;;;;6231633;23;20433;-86
2023/12/08 05:55:10;;;;;;;16.13;10.53;;;;;;;;;;6259120;23;20764;-86
2023/12/08 05:57:45;;;;;;;15.80;10.50;;;;;;;;;;6233546;23;20382;-87
2023/12/08 06:00:12;;;;;;;13.00;8.90;;;;;;;;;;6232548;23;20428;-86
2023/12/08 06:02:40;;;;;;;15.83;9.47;;;;;;;;;;6232436;23;20440;-87
2023/12/08 06:05:12;;;;;;;13.90;9.60;;;;;;;;;;6256626;22;20411;-85
2023/12/08 06:07:41;;;;;;;10.38;8.30;;;;;;;;;;6230959;23;20426;-87
2023/12/08 06:10:12;;;;;;;12.25;9.13;;;;;;;;;;6231346;22;20197;-85
2023/12/08 06:12:45;;;;;;;14.93;10.40;;;;;;;;;;6232180;23;20208;-88
2023/12/08 06:15:19;;;;;;;14.93;8.17;;;;;;;;;;6239648;23;20438;-88
2023/12/08 06:17:47;;;;;;;14.73;9.60;;;;;;;;;;6231487;23;20412;-87
2023/12/08 06:20:16;;;;;;;18.03;10.73;;;;;;;;;;6233411;23;20432;-88
2023/12/08 06:22:46;;;;;;;15.10;10.17;;;;;;;;;;6232599;23;20447;-87
2023/12/08 06:25:16;;;;;;;13.03;10.00;;;;;;;;;;6232738;23;20489;-87
2023/12/08 06:27:48;;;;;;;16.40;10.90;;;;;;;;;;6232008;23;20481;-87
2023/12/08 06:30:16;;;;;;;13.70;7.87;;;;;;;;;;6259944;22;20440;-86
2023/12/08 06:32:46;;;;;;;16.60;10.07;;;;;;;;;;6259945;23;20447;-89
2023/12/08 06:35:15;;;;;;;14.73;9.93;;;;;;;;;;6229329;23;20412;-86
2023/12/08 06:37:50;;;;;;;12.70;8.75;;;;;;;;;;6229289;23;20445;-87
2023/12/08 06:40:18;;;;;;;13.30;8.87;;;;;;;;;;6229402;23;20667;-87
2023/12/08 06:42:45;;;;;;;13.00;9.10;;;;;;;;;;6229236;23;20448;-86
2023/12/08 06:45:14;;;;;;;12.25;9.27;;;;;;;;;;6228181;23;20410;-85
2023/12/08 06:47:42;;;;;;;13.20;10.10;;;;;;;;;;6230005;23;20517;-87
2023/12/08 06:50:15;;;;;;;13.63;9.65;;;;;;;;;;6239441;22;20450;-89
2023/12/08 06:52:51;;;;;;;13.37;8.57;;;;;;;;;;6244341;23;20200;-89
2023/12/08 06:55:26;;;;;;;13.63;10.50;;;;;;;;;;6244969;23;20449;-87
2023/12/08 06:58:01;;;;;;;13.90;8.97;;;;;;;;;;6232768;23;20417;-88
2023/12/08 07:00:29;;;;;;;11.50;7.97;;;;;;;;;;6260110;22;20466;-88
2023/12/08 07:02:59;;;;;;;16.27;8.60;;;;;;;;;;6232005;23;20483;-90
2023/12/08 07:05:28;;;;;;;12.83;9.20;;;;;;;;;;6240248;23;20401;-88
2023/12/08 07:08:01;;;;;;;14.07;9.33;;;;;;;;;;6260152;22;20409;-87
2023/12/08 07:10:34;;;;;;;13.17;10.67;;;;;;;;;;6233193;23;20444;-87
2023/12/08 07:13:04;;;;;;;13.70;9.83;;;;;;;;;;6233768;23;20426;-86
2023/12/08 07:15:32;;;;;;;15.27;9.97;;;;;;;;;;6230605;23;20409;-87
2023/12/08 07:17:59;;;;;;;13.40;9.20;;;;;;;;;;6233516;23;20404;-86
2023/12/08 07:20:28;;;;;;;14.47;10.60;;;;;;;;;;6229101;23;20503;-87
2023/12/08 07:23:04;;;;;;;13.70;9.40;;;;;;;;;;6231951;23;20511;-86
2023/12/08 07:25:33;;;;;;;16.65;10.82;;;;;;;;;;6227708;23;20408;-87
2023/12/08 07:28:03;;;;;;;14.53;10.13;;;;;;;;;;6229235;23;20169;-87
2023/12/08 07:30:32;;;;;;;11.37;8.90;;;;;;;;;;6231040;23;20436;-88
2023/12/08 07:33:03;;;;;;;14.70;10.10;;;;;;;;;;6256063;22;20416;-87
2023/12/08 07:35:38;;;;;;;15.05;10.93;;;;;;;;;;6229076;23;20505;-87
2023/12/08 07:38:09;;;;;;;13.63;9.50;;;;;;;;;;6232261;23;20178;-88
2023/12/08 07:40:46;;;;;;;15.83;8.90;;;;;;;;;;6233837;23;20435;-87
2023/12/08 07:43:21;;;;;;;17.00;11.40;;;;;;;;;;6231366;23;20690;-88
2023/12/08 07:45:51;;;;;;;17.63;10.07;;;;;;;;;;6231400;23;20435;-87
2023/12/08 07:48:18;;;;;;;14.70;9.77;;;;;;;;;;6228869;23;20415;-87
2023/12/08 07:50:48;;;;;;;15.00;9.80;;;;;;;;;;6235422;22;20412;-87
2023/12/08 07:53:18;;;;;;;19.87;9.97;;;;;;;;;;6263039;22;20419;-85
2023/12/08 07:55:46;;;;;;;15.10;10.70;;;;;;;;;;6260502;22;20401;-85
2023/12/08 07:58:14;;;;;;;16.63;12.00;;;;;;;;;;6259125;22;20412;-88
2023/12/08 08:00:43;;;;;;;17.27;10.67;;;;;;;;;;6232331;23;20428;-87
2023/12/08 08:03:22;;;;;;;13.82;8.95;;;;;;;;;;6257520;23;20513;-89
2023/12/08 08:05:50;;;;;;;17.07;9.80;;;;;;;;;;6233302;23;20165;-87
2023/12/08 08:08:18;;;;;;;16.67;10.50;;;;;;;;;;6245114;23;20584;-88
2023/12/08 08:10:45;;;;;;;14.73;10.00;;;;;;;;;;6270540;22;20424;-86
2023/12/08 08:13:15;;;;;;;14.30;9.80;;;;;;;;;;6272070;22;20404;-87
2023/12/08 08:15:52;;;;;;;19.03;10.40;;;;;;;;;;6246992;23;20419;-87
2023/12/08 08:18:29;;;;;;;16.83;10.37;;;;;;;;;;6245322;23;20408;-86
2023/12/08 08:21:01;;;;;;;14.20;9.53;;;;;;;;;;6240874;23;20424;-86
2023/12/08 08:23:33;;;;;;;12.30;9.30;;;;;;;;;;6243872;23;20503;-87
2023/12/08 08:26:07;;;;;;;13.37;8.13;;;;;;;;;;6245164;23;20407;-87
2023/12/08 08:28:39;;;;;;;15.80;11.15;;;;;;;;;;6273251;23;20427;-89
2023/12/08 08:31:12;;;;;;;15.90;10.43;;;;;;;;;;6248628;22;20172;-87
2023/12/08 08:33:43;;;;;;;13.37;9.47;;;;;;;;;;6248081;23;20388;-88
2023/12/08 08:36:30;;;;;;;15.23;10.17;;;;;;;;;;6244739;23;20407;-87
2023/12/08 08:39:40;;;;;;;15.93;10.90;;;;;;;;;;6264575;23;20462;-86
2023/12/08 08:42:13;;;;;;;13.63;9.23;;;;;;;;;;6084886;23;20416;-85
2023/12/08 08:44:44;;;;;;;14.57;10.17;;;;;;;;;;6216920;23;20467;-87
2023/12/08 08:47:18;;;;;;;13.23;8.53;;;;;;;;;;6233634;23;20400;-87
2023/12/08 08:49:52;;;;;;;14.18;10.10;;;;;;;;;;6233992;22;20390;-86
2023/12/08 08:52:20;;;;;;;14.83;10.97;;;;;;;;;;6234061;23;20252;-87
2023/12/08 08:54:50;;;;;;;16.50;10.30;;;;;;;;;;6234794;23;20412;-87
2023/12/08 08:57:23;;;;;;;17.83;12.23;;;;;;;;;;6234558;23;20498;-89
2023/12/08 08:59:56;;;;;;;15.57;10.67;;;;;;;;;;6235375;22;20435;-88
2023/12/08 09:02:30;;;;;;;15.70;9.17;;;;;;;;;;6234869;23;20543;-89
2023/12/08 09:05:02;;;;;;;13.60;9.37;;;;;;;;;;6234693;23;20432;-89
2023/12/08 09:07:30;;;;;;;15.47;10.57;;;;;;;;;;6237175;23;20438;-86
2023/12/08 09:10:05;;;;;;;14.20;10.90;;;;;;;;;;6246301;22;20467;-89
2023/12/08 09:12:36;;;;;;;14.57;10.17;;;;;;;;;;6232278;23;20423;-88
2023/12/08 09:15:08;;;;;;;14.23;9.60;;;;;;;;;;6230436;23;20404;-87
2023/12/08 09:17:46;;;;;;;14.50;10.17;;;;;;;;;;6232760;23;20392;-87
2023/12/08 09:20:16;;;;;;;17.50;10.40;;;;;;;;;;6235565;22;20431;-87
2023/12/08 09:22:48;;;;;;;14.57;10.60;;;;;;;;;;6231992;23;20419;-88
2023/12/08 09:25:21;;;;;;;15.07;10.87;;;;;;;;;;6259701;22;20457;-88
2023/12/08 09:27:53;;;;;;;13.77;10.23;;;;;;;;;;6230633;23;20427;-89
2023/12/08 09:30:26;;;;;;;14.80;9.00;;;;;;;;;;6237074;23;20458;-88
2023/12/08 09:32:55;;;;;;;15.88;9.80;;;;;;;;;;6230561;23;20433;-86
2023/12/08 09:35:28;;;;;;;17.13;10.87;;;;;;;;;;6233631;23;20920;-87
2023/12/08 09:37:56;;;;;;;11.63;8.45;;;;;;;;;;6259362;23;20437;-87
2023/12/08 09:40:25;;;;;;;12.70;9.50;;;;;;;;;;6256517;22;20220;-87
2023/12/08 09:42:56;;;;;;;16.80;10.83;;;;;;;;;;6228900;23;20737;-87
2023/12/08 09:45:24;;;;;;;12.73;11.00;;;;;;;;;;6260213;23;20447;-86
2023/12/08 09:47:56;;;;;;;18.10;11.93;;;;;;;;;;6234151;23;20418;-87
2023/12/08 09:50:24;;;;;;;16.80;11.47;;;;;;;;;;6230960;23;20432;-86
2023/12/08 09:52:59;;;;;;;15.10;10.35;;;;;;;;;;6260455;23;20433;-88
2023/12/08 09:55:40;;;;;;;15.90;10.00;;;;;;;;;;6235783;23;20172;-87
2023/12/08 09:58:10;;;;;;;14.47;10.37;;;;;;;;;;6231783;23;20466;-87
2023/12/08 10:00:42;;;;;;;15.23;9.77;;;;;;;;;;6238034;22;20446;-87
2023/12/08 10:03:12;;;;;;;11.87;7.60;;;;;;;;;;6230823;23;20791;-88
2023/12/08 10:05:42;;;;;;;17.80;10.80;;;;;;;;;;6260320;22;20502;-88
2023/12/08 10:08:20;;;;;;;15.43;10.20;;;;;;;;;;6267100;22;20392;-90
2023/12/08 10:10:48;;;;;;;16.10;11.50;;;;;;;;;;6245369;22;20472;-88
2023/12/08 10:13:22;;;;;;;17.70;10.47;;;;;;;;;;6247036;22;20408;-86
2023/12/08 10:15:52;;;;;;;18.27;11.20;;;;;;;;;;6247169;23;20416;-87
2023/12/08 10:18:26;;;;;;;16.17;11.37;;;;;;;;;;6230611;23;20424;-88
2023/12/08 10:21:13;;;;;;;14.97;10.83;;;;;;;;;;6231499;23;20921;-86
2023/12/08 10:23:41;;;;;;;21.43;11.83;;;;;;;;;;6230072;23;20467;-86
2023/12/08 10:26:12;;;;;;;15.33;10.70;;;;;;;;;;6233088;23;20408;-87
2023/12/08 10:28:42;;;;;;;12.63;9.05;;;;;;;;;;6229706;23;20420;-89
2023/12/08 10:31:12;;;;;;;15.83;11.37;;;;;;;;;;6230541;23;20189;-88
2023/12/08 10:33:42;;;;;;;16.33;11.67;;;;;;;;;;6229236;23;20511;-89
2023/12/08 10:36:11;;;;;;;15.97;11.77;;;;;;;;;;6255209;22;20749;-87
2023/12/08 10:38:41;;;;;;;13.65;9.63;;;;;;;;;;6257721;22;20416;-87
2023/12/08 10:41:11;;;;;;;14.50;9.00;;;;;;;;;;6232281;23;20209;-87
2023/12/08 10:43:49;;;;;;;16.87;10.47;;;;;;;;;;6239091;23;20487;-89
2023/12/08 10:46:17;;;;;;;17.37;10.77;;;;;;;;;;6240818;23;20436;-88
2023/12/08 10:48:45;;;;;;;16.97;10.87;;;;;;;;;;6241332;23;20411;-88
2023/12/08 10:51:17;;;;;;;15.35;10.45;;;;;;;;;;6240302;23;20431;-88
2023/12/08 10:54:03;;;;;;;16.67;11.30;;;;;;;;;;6264296;22;20173;-89
2023/12/08 10:56:33;;;;;;;18.43;11.03;;;;;;;;;;6235196;23;20412;-86
2023/12/08 10:59:03;;;;;;;12.68;8.40;;;;;;;;;;6234619;23;20482;-87
2023/12/08 11:01:34;;;;;;;16.47;11.90;;;;;;;;;;6232862;23;20203;-86
2023/12/08 11:04:13;;;;;;;12.63;9.03;;;;;;;;;;6232895;23;20439;-88
2023/12/08 11:07:02;;;;;;;15.70;10.50;;;;;;;;;;6233068;23;20424;-88
2023/12/08 11:09:34;;;;;;;13.80;9.77;;;;;;;;;;6231910;23;20463;-87
2023/12/08 11:12:07;;;;;;;14.50;9.90;;;;;;;;;;6263007;22;20297;-88
2023/12/08 11:14:38;;;;;;;14.57;9.65;;;;;;;;;;6237148;23;20422;-86
2023/12/08 11:17:24;;;;;;;14.97;11.37;;;;;;;;;;6265914;23;20170;-87
2023/12/08 11:19:53;;;;;;;16.30;10.90;;;;;;;;;;6215129;22;20412;-86
2023/12/08 11:22:21;;;;;;;16.40;9.68;;;;;;;;;;6216513;23;20415;-85
2023/12/08 11:24:49;;;;;;;14.63;11.60;;;;;;;;;;6240782;23;20216;-88
2023/12/08 11:27:28;;;;;;;16.13;11.17;;;;;;;;;;6262048;22;20397;-88
2023/12/08 11:30:11;;;;;;;18.10;10.60;;;;;;;;;;6241510;22;20472;-89
2023/12/08 11:32:46;;;;;;;15.03;10.07;;;;;;;;;;6232555;23;20384;-87
2023/12/08 11:35:15;;;;;;;17.17;10.77;;;;;;;;;;6259711;23;20404;-89
2023/12/08 11:37:44;;;;;;;14.23;9.67;;;;;;;;;;6232818;23;20439;-87
2023/12/08 11:40:12;;;;;;;14.53;9.73;;;;;;;;;;6261348;22;20438;-87
2023/12/08 11:42:42;;;;;;;18.17;11.43;;;;;;;;;;6235778;23;20408;-88
2023/12/08 11:45:19;;;;;;;21.10;11.77;;;;;;;;;;6243394;23;20201;-88
2023/12/08 11:47:47;;;;;;;20.98;11.27;;;;;;;;;;6266126;22;20435;-87
2023/12/08 11:50:19;;;;;;;15.63;9.77;;;;;;;;;;6263602;22;20196;-86
2023/12/08 11:52:48;;;;;;;17.57;10.60;;;;;;;;;;6210039;23;20878;-87
2023/12/08 11:55:25;;;;;;;16.27;11.03;;;;;;;;;;6235637;23;20419;-86
2023/12/08 11:58:02;;;;;;;19.60;12.30;;;;;;;;;;6241225;23;20400;-87
2023/12/08 12:00:32;;;;;;;14.70;11.00;;;;;;;;;;6233640;23;20424;-87
2023/12/08 12:03:02;;;;;;;14.20;10.27;;;;;;;;;;6234075;23;20436;-89
2023/12/08 12:05:44;;;;;;;20.20;11.80;;;;;;;;;;6263101;23;20434;-88
2023/12/08 12:08:14;;;;;;;15.40;11.37;;;;;;;;;;6217798;22;20407;-88
2023/12/08 12:10:43;;;;;;;15.57;10.80;;;;;;;;;;6236708;23;20440;-87
2023/12/08 12:13:12;;;;;;;18.83;11.00;;;;;;;;;;6260396;22;20412;-89
2023/12/08 12:15:41;;;;;;;13.87;10.57;;;;;;;;;;6235677;23;20428;-89
2023/12/08 12:18:11;;;;;;;15.80;10.83;;;;;;;;;;6233536;23;20496;-87
2023/12/08 12:20:41;;;;;;;18.90;11.00;;;;;;;;;;6262313;22;20439;-87
2023/12/08 12:23:13;;;;;;;18.97;10.73;;;;;;;;;;6237941;23;20423;-86
2023/12/08 12:25:47;;;;;;;18.50;10.70;;;;;;;;;;6231142;23;20432;-87
2023/12/08 12:28:21;;;;;;;17.33;9.70;;;;;;;;;;6259183;23;20412;-87
2023/12/08 12:31:02;;;;;;;16.03;10.97;;;;;;;;;;6235475;23;20408;-87
2023/12/08 12:33:30;;;;;;;17.47;10.60;;;;;;;;;;6258899;22;20442;-87
2023/12/08 12:36:03;;;;;;;18.63;11.13;;;;;;;;;;6234518;23;20435;-89
2023/12/08 12:38:36;;;;;;;21.70;13.80;;;;;;;;;;6234015;23;20416;-88
2023/12/08 12:41:39;;;;;;;15.95;11.38;;;;;;;;;;6234555;23;20433;-86
2023/12/08 12:44:08;;;;;;;14.30;10.57;;;;;;;;;;6106631;23;20269;-88
2023/12/08 12:46:42;;;;;;;13.85;9.80;;;;;;;;;;6236067;22;20484;-88
2023/12/08 12:49:15;;;;;;;17.50;10.97;;;;;;;;;;6233889;23;20223;-88
2023/12/08 12:51:43;;;;;;;14.33;10.70;;;;;;;;;;6233090;23;20440;-88
2023/12/08 12:54:30;;;;;;;15.80;11.30;;;;;;;;;;6236198;22;20404;-88
2023/12/08 12:57:10;;;;;;;16.10;10.30;;;;;;;;;;6233969;23;20400;-88
2023/12/08 12:59:54;;;;;;;14.45;10.75;;;;;;;;;;6262144;23;20415;-87
2023/12/08 13:02:32;;;;;;;15.00;10.60;;;;;;;;;;6234066;23;20237;-88
2023/12/08 13:05:09;;;;;;;13.87;9.80;;;;;;;;;;6233196;23;20420;-88
2023/12/08 13:07:40;;;;;;;13.97;10.17;;;;;;;;;;6232788;23;20483;-87
2023/12/08 13:10:14;;;;;;;18.00;10.43;;;;;;;;;;6258155;22;20428;-87
2023/12/08 13:12:46;;;;;;;14.47;10.63;;;;;;;;;;6264427;22;20412;-87
2023/12/08 13:15:19;;;;;;;16.80;10.80;;;;;;;;;;6231657;23;20420;-87
2023/12/08 13:17:49;;;;;;;18.60;11.10;;;;;;;;;;6232405;23;20447;-88
2023/12/08 13:20:17;;;;;;;16.60;10.40;;;;;;;;;;6232501;23;20900;-87
2023/12/08 13:22:47;;;;;;;15.70;10.40;;;;;;;;;;6259000;22;20412;-87
2023/12/08 13:25:18;;;;;;;13.27;9.83;;;;;;;;;;6234451;23;20444;-87
2023/12/08 13:27:45;;;;;;;14.83;10.37;;;;;;;;;;6234672;23;20408;-86
2023/12/08 13:30:35;;;;;;;14.63;10.40;;;;;;;;;;6239631;22;20423;-89
2023/12/08 13:33:10;;;;;;;13.53;10.20;;;;;;;;;;6239178;23;20415;-88
2023/12/08 13:35:40;;;;;;;15.30;9.57;;;;;;;;;;6233109;23;20392;-87
2023/12/08 13:38:08;;;;;;;12.40;8.77;;;;;;;;;;6258916;22;20423;-87
2023/12/08 13:40:38;;;;;;;16.07;9.00;;;;;;;;;;6233118;23;20431;-89
2023/12/08 13:43:07;;;;;;;16.23;9.43;;;;;;;;;;6236315;23;20412;-89
2023/12/08 13:45:35;;;;;;;11.53;8.30;;;;;;;;;;6234466;23;20439;-89
2023/12/08 13:48:09;;;;;;;16.88;9.27;;;;;;;;;;6232807;23;20404;-88
2023/12/08 13:50:37;;;;;;;13.43;9.57;;;;;;;;;;6232875;23;20196;-89
2023/12/08 13:53:12;;;;;;;14.27;10.07;;;;;;;;;;6261094;23;20462;-88
2023/12/08 13:55:47;;;;;;;15.50;9.87;;;;;;;;;;6241842;23;20173;-87
2023/12/08 13:58:17;;;;;;;14.23;9.93;;;;;;;;;;6267110;23;20400;-87
2023/12/08 14:00:46;;;;;;;15.33;10.43;;;;;;;;;;6239947;23;20197;-88
2023/12/08 14:03:15;;;;;;;13.27;10.50;;;;;;;;;;6262372;22;20412;-89
2023/12/08 14:05:46;;;;;;;14.40;10.07;;;;;;;;;;6235735;23;20830;-88
2023/12/08 14:08:16;;;;;;;15.00;9.57;;;;;;;;;;6242190;23;20435;-89
2023/12/08 14:10:49;;;;;;;12.93;9.90;;;;;;;;;;6240440;23;20432;-88
2023/12/08 14:13:17;;;;;;;14.90;9.10;;;;;;;;;;6238214;23;20404;-89
2023/12/08 14:15:49;;;;;;;14.70;9.40;;;;;;;;;;6243724;23;20479;-89
2023/12/08 14:18:17;;;;;;;13.07;10.10;;;;;;;;;;6238854;23;20428;-88
2023/12/08 14:20:56;;;;;;;17.07;10.63;;;;;;;;;;6237237;23;20416;-88
2023/12/08 14:23:24;;;;;;;18.47;10.17;;;;;;;;;;6236145;23;20642;-89
2023/12/08 14:26:05;;;;;;;12.80;9.80;;;;;;;;;;6238881;23;20470;-88
2023/12/08 14:31:08;;;;;;;16.07;10.63;;;;;;;;;;6260708;22;20454;-88
2023/12/08 14:33:36;;;;;;;17.43;10.40;;;;;;;;;;6259660;23;20415;-88
2023/12/08 14:36:07;;;;;;;16.67;10.57;;;;;;;;;;6259933;23;20415;-88
2023/12/08 14:38:38;;;;;;;18.43;10.93;;;;;;;;;;6233778;23;20411;-88
2023/12/08 14:41:06;;;;;;;15.97;10.03;;;;;;;;;;6231119;23;20458;-88
2023/12/08 14:43:35;;;;;;;16.43;9.90;;;;;;;;;;6234407;23;20431;-87
2023/12/08 14:46:06;;;;;;;15.93;9.68;;;;;;;;;;6235130;23;20471;-87
2023/12/08 14:48:35;;;;;;;13.43;9.87;;;;;;;;;;6245275;22;20161;-89
2023/12/08 14:53:54;;;;;;;18.20;9.97;;;;;;;;;;6274698;22;20414;-87
2023/12/08 14:56:29;;;;;;;16.23;9.73;;;;;;;;;;6268853;22;20433;-89